PWSweather.com
Personal Weather Stations
Station Observations
BANEKERE1
AntwerpenBE

AntwerpenBE

Lat: 51.2809101, Lon: 4.4202713

Elevation: 40

Station Type:

http://www.akker.be

Latest ConditionsUpdated 6:50:02 PM GMT+01:01 Thursday, May 28, 2015
Currently Today's Max Today's Min Today's Average
Temperature 60.0°F15.6°C 65.8°F18.8°C 57.0°F13.9°C 60.2°F15.7°C
Dew Point 42.8°F6.0°C 52.5°F11.4°C 42.4°F5.8°C 49.0°F9.4°C
Winds 3.5 mph NW5.6 kmh NW 10.4 mph SW16.7 kmh SW - 5.9 mph 9.5 kmh
Wind Gusts 6.9 mph11.1 kmh 17.3 mph27.8 kmh - -
Humidity 53% 79% 50% 67%
Pressure 29.96 in1014.6 mb 30.03 in1016.9 mb 29.95 in1014.2 mb -
Hour Temp Dew Point Humidity Winds Wind Gusts Pressure Precip Precip Rate Daily Precip Total
06:50 PM 60.0°F15.6°C 42.8°F6.0°C 53% 3.5 mph NW5.6 kmh NW 6.9 mph11.1 kmh 29.96 in1014.6 mb - 0.00 in0.0 mm 0.00 in0.0 mm
06:40 PM 60.1°F15.6°C 42.9°F6.1°C 53% 4.6 mph WNW7.4 kmh WNW 8.1 mph13.0 kmh 29.97 in1014.9 mb - 0.00 in0.0 mm 0.00 in0.0 mm
06:30 PM 60.3°F15.7°C 42.6°F5.9°C 52% 3.5 mph NNW5.6 kmh NNW 8.1 mph13.0 kmh 29.97 in1014.9 mb - 0.00 in0.0 mm 0.00 in0.0 mm
06:20 PM 60.6°F15.9°C 42.4°F5.8°C 51% 3.5 mph NNW5.6 kmh NNW 6.9 mph11.1 kmh 29.97 in1014.9 mb - 0.00 in0.0 mm 0.00 in0.0 mm
06:10 PM 61.2°F16.2°C 42.9°F6.1°C 51% 4.6 mph NNW7.4 kmh NNW 10.4 mph16.7 kmh 29.97 in1014.9 mb - 0.00 in0.0 mm 0.00 in0.0 mm
06:00 PM 61.8°F16.6°C 43.5°F6.4°C 51% 4.6 mph NNW7.4 kmh NNW 10.4 mph16.7 kmh 29.97 in1014.9 mb - 0.00 in0.0 mm 0.00 in0.0 mm
05:50 PM 61.7°F16.5°C 43.4°F6.3°C 51% 6.9 mph N11.1 kmh N 10.4 mph16.7 kmh 29.97 in1014.9 mb - 0.00 in0.0 mm 0.00 in0.0 mm
05:40 PM 61.8°F16.6°C 43.5°F6.4°C 51% 5.8 mph NNW9.3 kmh NNW 11.5 mph18.5 kmh 29.97 in1014.9 mb - 0.00 in0.0 mm 0.00 in0.0 mm
05:30 PM 62.0°F16.7°C 43.7°F6.5°C 51% 4.6 mph NNW7.4 kmh NNW 10.4 mph16.7 kmh 29.97 in1014.9 mb - 0.00 in0.0 mm 0.00 in0.0 mm
05:20 PM 61.7°F16.5°C 43.9°F6.6°C 52% 4.6 mph N7.4 kmh N 8.1 mph13.0 kmh 29.97 in1014.9 mb - 0.00 in0.0 mm 0.00 in0.0 mm
05:10 PM 61.7°F16.5°C 43.9°F6.6°C 52% 5.8 mph N9.3 kmh N 11.5 mph18.5 kmh 29.97 in1014.9 mb - 0.00 in0.0 mm 0.00 in0.0 mm
05:00 PM 62.1°F16.7°C 43.8°F6.6°C 51% 6.9 mph NW11.1 kmh NW 12.7 mph20.4 kmh 29.97 in1014.9 mb - 0.00 in0.0 mm 0.00 in0.0 mm
04:50 PM 62.5°F16.9°C 44.6°F7.0°C 52% 3.5 mph W5.6 kmh W 6.9 mph11.1 kmh 29.97 in1014.9 mb - 0.00 in0.0 mm 0.00 in0.0 mm
04:40 PM 62.9°F17.2°C 44.5°F6.9°C 51% 9.2 mph NW14.8 kmh NW 11.5 mph18.5 kmh 29.97 in1014.9 mb - 0.00 in0.0 mm 0.00 in0.0 mm
04:30 PM 63.2°F17.3°C 44.8°F7.1°C 51% 4.6 mph NNW7.4 kmh NNW 11.5 mph18.5 kmh 29.97 in1014.9 mb - 0.00 in0.0 mm 0.00 in0.0 mm
04:20 PM 63.0°F17.2°C 45.1°F7.3°C 52% 4.6 mph N7.4 kmh N 10.4 mph16.7 kmh 29.97 in1014.9 mb - 0.00 in0.0 mm 0.00 in0.0 mm
04:10 PM 63.7°F17.6°C 45.2°F7.3°C 51% 8.1 mph NNW13.0 kmh NNW 11.5 mph18.5 kmh 29.97 in1014.9 mb - 0.00 in0.0 mm 0.00 in0.0 mm
04:00 PM 64.4°F18.0°C 45.3°F7.4°C 50% 5.8 mph NNW9.3 kmh NNW 9.2 mph14.8 kmh 29.97 in1014.9 mb - 0.00 in0.0 mm 0.00 in0.0 mm
03:50 PM 64.1°F17.8°C 46.1°F7.8°C 52% 4.6 mph NW7.4 kmh NW 9.2 mph14.8 kmh 29.96 in1014.6 mb - 0.00 in0.0 mm 0.00 in0.0 mm
03:40 PM 64.0°F17.8°C 45.5°F7.5°C 51% 9.2 mph NNW14.8 kmh NNW 13.8 mph22.2 kmh 29.97 in1014.9 mb - 0.00 in0.0 mm 0.00 in0.0 mm
03:30 PM 64.6°F18.1°C 47.1°F8.4°C 53% 9.2 mph WSW14.8 kmh WSW 13.8 mph22.2 kmh 29.97 in1014.9 mb - 0.00 in0.0 mm 0.00 in0.0 mm
03:20 PM 63.6°F17.6°C 48.1°F8.9°C 57% 5.8 mph N9.3 kmh N 11.5 mph18.5 kmh 29.96 in1014.6 mb - 0.00 in0.0 mm 0.00 in0.0 mm
03:10 PM 62.7°F17.1°C 47.7°F8.7°C 58% 8.1 mph SW13.0 kmh SW 13.8 mph22.2 kmh 29.96 in1014.6 mb - 0.00 in0.0 mm 0.00 in0.0 mm
03:00 PM 62.6°F17.0°C 48.5°F9.2°C 60% 4.6 mph W7.4 kmh W 6.9 mph11.1 kmh 29.96 in1014.6 mb - 0.00 in0.0 mm 0.00 in0.0 mm
02:50 PM 63.0°F17.2°C 49.3°F9.6°C 61% 6.9 mph N11.1 kmh N 13.8 mph22.2 kmh 29.96 in1014.6 mb - 0.00 in0.0 mm 0.00 in0.0 mm
02:40 PM 63.5°F17.5°C 48.9°F9.4°C 59% 3.5 mph SE5.6 kmh SE 4.6 mph7.4 kmh 29.96 in1014.6 mb - 0.00 in0.0 mm 0.00 in0.0 mm
02:30 PM 64.0°F17.8°C 49.4°F9.7°C 59% 5.8 mph NW9.3 kmh NW 11.5 mph18.5 kmh 29.96 in1014.6 mb - 0.00 in0.0 mm 0.00 in0.0 mm
02:20 PM 64.2°F17.9°C 50.5°F10.3°C 61% 5.8 mph NW9.3 kmh NW 10.4 mph16.7 kmh 29.95 in1014.2 mb - 0.00 in0.0 mm 0.00 in0.0 mm
02:10 PM 64.3°F17.9°C 51.8°F11.0°C 64% 9.2 mph N14.8 kmh N 12.7 mph20.4 kmh 29.95 in1014.2 mb - 0.00 in0.0 mm 0.00 in0.0 mm
02:00 PM 63.7°F17.6°C 51.7°F10.9°C 65% 6.9 mph W11.1 kmh W 17.3 mph27.8 kmh 29.95 in1014.2 mb - 0.00 in0.0 mm 0.00 in0.0 mm
01:50 PM 64.2°F17.9°C 50.9°F10.5°C 62% 5.8 mph WSW9.3 kmh WSW 12.7 mph20.4 kmh 29.96 in1014.6 mb - 0.00 in0.0 mm 0.00 in0.0 mm
01:40 PM 65.1°F18.4°C 50.8°F10.4°C 60% 4.6 mph WSW7.4 kmh WSW 9.2 mph14.8 kmh 29.95 in1014.2 mb - 0.00 in0.0 mm 0.00 in0.0 mm
01:30 PM 65.4°F18.6°C 50.7°F10.4°C 59% 2.3 mph SSW3.7 kmh SSW 3.5 mph5.6 kmh 29.95 in1014.2 mb - 0.00 in0.0 mm 0.00 in0.0 mm
01:20 PM 64.0°F17.8°C 52.0°F11.1°C 65% 6.9 mph WSW11.1 kmh WSW 11.5 mph18.5 kmh 29.95 in1014.2 mb - 0.00 in0.0 mm 0.00 in0.0 mm
01:10 PM 64.0°F17.8°C 51.6°F10.9°C 64% 6.9 mph W11.1 kmh W 11.5 mph18.5 kmh 29.95 in1014.2 mb - 0.00 in0.0 mm 0.00 in0.0 mm
01:00 PM 65.8°F18.8°C 52.0°F11.1°C 61% 2.3 mph NNW3.7 kmh NNW 5.8 mph9.3 kmh 29.95 in1014.2 mb - 0.00 in0.0 mm 0.00 in0.0 mm
12:50 PM 63.7°F17.6°C 51.3°F10.7°C 64% 4.6 mph WSW7.4 kmh WSW 11.5 mph18.5 kmh 29.95 in1014.2 mb - 0.00 in0.0 mm 0.00 in0.0 mm
12:40 PM 62.9°F17.2°C 50.5°F10.3°C 64% 6.9 mph WSW11.1 kmh WSW 11.5 mph18.5 kmh 29.95 in1014.2 mb - 0.00 in0.0 mm 0.00 in0.0 mm
12:30 PM 63.0°F17.2°C 50.6°F10.3°C 64% 6.9 mph W11.1 kmh W 11.5 mph18.5 kmh 29.95 in1014.2 mb - 0.00 in0.0 mm 0.00 in0.0 mm
12:20 PM 62.5°F16.9°C 51.0°F10.6°C 66% 4.6 mph W7.4 kmh W 13.8 mph22.2 kmh 29.95 in1014.2 mb - 0.00 in0.0 mm 0.00 in0.0 mm
12:10 PM 61.9°F16.6°C 50.8°F10.4°C 67% 6.9 mph NW11.1 kmh NW 11.5 mph18.5 kmh 29.95 in1014.2 mb - 0.00 in0.0 mm 0.00 in0.0 mm
12:00 PM 62.1°F16.7°C 51.4°F10.8°C 68% 3.5 mph SW5.6 kmh SW 10.4 mph16.7 kmh 29.95 in1014.2 mb - 0.00 in0.0 mm 0.00 in0.0 mm
11:50 AM 62.3°F16.8°C 51.6°F10.9°C 68% 4.6 mph WSW7.4 kmh WSW 11.5 mph18.5 kmh 29.95 in1014.2 mb - 0.00 in0.0 mm 0.00 in0.0 mm
11:40 AM 63.1°F17.3°C 51.5°F10.8°C 66% 4.6 mph SE7.4 kmh SE 4.6 mph7.4 kmh 29.95 in1014.2 mb - 0.00 in0.0 mm 0.00 in0.0 mm
11:30 AM 63.1°F17.3°C 52.0°F11.1°C 67% 4.6 mph SW7.4 kmh SW 6.9 mph11.1 kmh 29.95 in1014.2 mb - 0.00 in0.0 mm 0.00 in0.0 mm
11:20 AM 62.9°F17.2°C 52.5°F11.4°C 69% 9.2 mph SW14.8 kmh SW 16.1 mph25.9 kmh 29.95 in1014.2 mb - 0.00 in0.0 mm 0.00 in0.0 mm
11:10 AM 61.4°F16.3°C 52.3°F11.3°C 72% 6.9 mph SW11.1 kmh SW 10.4 mph16.7 kmh 29.96 in1014.6 mb - 0.00 in0.0 mm 0.00 in0.0 mm
11:00 AM 59.7°F15.4°C 52.1°F11.2°C 76% 3.5 mph SSW5.6 kmh SSW 10.4 mph16.7 kmh 29.96 in1014.6 mb - 0.00 in0.0 mm 0.00 in0.0 mm
10:50 AM 58.8°F14.9°C 51.2°F10.7°C 76% 3.5 mph SW5.6 kmh SW 9.2 mph14.8 kmh 29.97 in1014.9 mb - 0.00 in0.0 mm 0.00 in0.0 mm
10:40 AM 58.5°F14.7°C 51.3°F10.7°C 77% 3.5 mph SSW5.6 kmh SSW 12.7 mph20.4 kmh 29.96 in1014.6 mb - 0.00 in0.0 mm 0.00 in0.0 mm
10:30 AM 58.2°F14.6°C 51.4°F10.8°C 78% 4.6 mph SSW7.4 kmh SSW 6.9 mph11.1 kmh 29.96 in1014.6 mb - 0.00 in0.0 mm 0.00 in0.0 mm
10:20 AM 57.8°F14.3°C 51.3°F10.7°C 79% 3.5 mph SSW5.6 kmh SSW 6.9 mph11.1 kmh 29.97 in1014.9 mb - 0.00 in0.0 mm 0.00 in0.0 mm
10:10 AM 58.1°F14.5°C 51.3°F10.7°C 78% 4.6 mph SW7.4 kmh SW 8.1 mph13.0 kmh 29.97 in1014.9 mb - 0.00 in0.0 mm 0.00 in0.0 mm
10:00 AM 58.5°F14.7°C 51.3°F10.7°C 77% 3.5 mph S5.6 kmh S 8.1 mph13.0 kmh 29.97 in1014.9 mb - 0.00 in0.0 mm 0.00 in0.0 mm
09:50 AM 58.7°F14.8°C 50.8°F10.4°C 75% 5.8 mph SW9.3 kmh SW 11.5 mph18.5 kmh 29.97 in1014.9 mb - 0.00 in0.0 mm 0.00 in0.0 mm
09:40 AM 58.6°F14.8°C 50.7°F10.4°C 75% 8.1 mph SSW13.0 kmh SSW 10.4 mph16.7 kmh 29.97 in1014.9 mb - 0.00 in0.0 mm 0.00 in0.0 mm
09:30 AM 58.9°F14.9°C 51.3°F10.7°C 76% 5.8 mph WSW9.3 kmh WSW 8.1 mph13.0 kmh 29.97 in1014.9 mb - 0.00 in0.0 mm 0.00 in0.0 mm
09:20 AM 58.8°F14.9°C 50.9°F10.5°C 75% 6.9 mph SW11.1 kmh SW 12.7 mph20.4 kmh 29.96 in1014.6 mb - 0.00 in0.0 mm 0.00 in0.0 mm
09:10 AM 58.8°F14.9°C 50.9°F10.5°C 75% 3.5 mph SW5.6 kmh SW 5.8 mph9.3 kmh 29.96 in1014.6 mb - 0.00 in0.0 mm 0.00 in0.0 mm
09:00 AM 58.7°F14.8°C 50.8°F10.4°C 75% 9.2 mph S14.8 kmh S 11.5 mph18.5 kmh 29.96 in1014.6 mb - 0.00 in0.0 mm 0.00 in0.0 mm
08:50 AM 58.6°F14.8°C 51.1°F10.6°C 76% 6.9 mph SSW11.1 kmh SSW 15.0 mph24.1 kmh 29.96 in1014.6 mb - 0.00 in0.0 mm 0.00 in0.0 mm
08:40 AM 58.5°F14.7°C 51.0°F10.6°C 76% 4.6 mph SW7.4 kmh SW 6.9 mph11.1 kmh 29.96 in1014.6 mb - 0.00 in0.0 mm 0.00 in0.0 mm
08:30 AM 58.6°F14.8°C 51.1°F10.6°C 76% 4.6 mph SW7.4 kmh SW 6.9 mph11.1 kmh 29.96 in1014.6 mb - 0.00 in0.0 mm 0.00 in0.0 mm
08:20 AM 58.4°F14.7°C 50.8°F10.4°C 76% 6.9 mph SSW11.1 kmh SSW 11.5 mph18.5 kmh 29.96 in1014.6 mb - 0.00 in0.0 mm 0.00 in0.0 mm
08:10 AM 58.3°F14.6°C 50.8°F10.4°C 76% 5.8 mph SW9.3 kmh SW 6.9 mph11.1 kmh 29.96 in1014.6 mb - 0.00 in0.0 mm 0.00 in0.0 mm
08:00 AM 58.2°F14.6°C 51.0°F10.6°C 77% 2.3 mph SW3.7 kmh SW 8.1 mph13.0 kmh 29.97 in1014.9 mb - 0.00 in0.0 mm 0.00 in0.0 mm
07:50 AM 58.0°F14.4°C 50.5°F10.3°C 76% 4.6 mph S7.4 kmh S 12.7 mph20.4 kmh 29.97 in1014.9 mb - 0.00 in0.0 mm 0.00 in0.0 mm
07:40 AM 58.0°F14.4°C 50.9°F10.5°C 77% 4.6 mph SW7.4 kmh SW 10.4 mph16.7 kmh 29.97 in1014.9 mb - 0.00 in0.0 mm 0.00 in0.0 mm
07:30 AM 57.9°F14.4°C 50.8°F10.4°C 77% 5.8 mph SSW9.3 kmh SSW 8.1 mph13.0 kmh 29.96 in1014.6 mb - 0.00 in0.0 mm 0.00 in0.0 mm
07:20 AM 57.7°F14.3°C 50.2°F10.1°C 76% 6.9 mph SSW11.1 kmh SSW 11.5 mph18.5 kmh 29.97 in1014.9 mb - 0.00 in0.0 mm 0.00 in0.0 mm
07:10 AM 57.6°F14.2°C 50.4°F10.2°C 77% 4.6 mph SSW7.4 kmh SSW 8.1 mph13.0 kmh 29.97 in1014.9 mb - 0.00 in0.0 mm 0.00 in0.0 mm
07:00 AM 57.5°F14.2°C 50.3°F10.2°C 77% 5.8 mph SW9.3 kmh SW 12.7 mph20.4 kmh 29.97 in1014.9 mb - 0.00 in0.0 mm 0.00 in0.0 mm
06:50 AM 57.4°F14.1°C 49.9°F9.9°C 76% 6.9 mph SSW11.1 kmh SSW 9.2 mph14.8 kmh 29.97 in1014.9 mb - 0.00 in0.0 mm 0.00 in0.0 mm
06:40 AM 57.4°F14.1°C 49.9°F9.9°C 76% 3.5 mph WSW5.6 kmh WSW 6.9 mph11.1 kmh 29.97 in1014.9 mb - 0.00 in0.0 mm 0.00 in0.0 mm
06:30 AM 57.4°F14.1°C 49.5°F9.7°C 75% 5.8 mph SW9.3 kmh SW 11.5 mph18.5 kmh 29.97 in1014.9 mb - 0.00 in0.0 mm 0.00 in0.0 mm
06:20 AM 57.4°F14.1°C 49.6°F9.8°C 75% 6.9 mph SSW11.1 kmh SSW 8.1 mph13.0 kmh 29.97 in1014.9 mb - 0.00 in0.0 mm 0.00 in0.0 mm
06:10 AM 57.4°F14.1°C 49.5°F9.7°C 75% 9.2 mph SW14.8 kmh SW 12.7 mph20.4 kmh 29.97 in1014.9 mb - 0.00 in0.0 mm 0.00 in0.0 mm
06:00 AM 57.3°F14.1°C 49.4°F9.7°C 75% 5.8 mph SW9.3 kmh SW 6.9 mph11.1 kmh 29.97 in1014.9 mb - 0.00 in0.0 mm 0.00 in0.0 mm
05:50 AM 57.3°F14.1°C 49.1°F9.5°C 74% 5.8 mph SW9.3 kmh SW 11.5 mph18.5 kmh 29.97 in1014.9 mb - 0.00 in0.0 mm 0.00 in0.0 mm
05:40 AM 57.1°F13.9°C 49.3°F9.6°C 75% 6.9 mph SW11.1 kmh SW 12.7 mph20.4 kmh 29.97 in1014.9 mb - 0.00 in0.0 mm 0.00 in0.0 mm
05:30 AM 57.1°F13.9°C 49.2°F9.6°C 75% 10.4 mph SSW16.7 kmh SSW 12.7 mph20.4 kmh 29.97 in1014.9 mb - 0.00 in0.0 mm 0.00 in0.0 mm
05:20 AM 57.0°F13.9°C 49.2°F9.6°C 75% 5.8 mph SW9.3 kmh SW 8.1 mph13.0 kmh 29.97 in1014.9 mb - 0.00 in0.0 mm 0.00 in0.0 mm
05:10 AM 57.1°F13.9°C 49.2°F9.6°C 75% 5.8 mph SW9.3 kmh SW 12.7 mph20.4 kmh 29.97 in1014.9 mb - 0.00 in0.0 mm 0.00 in0.0 mm
05:00 AM 57.3°F14.1°C 49.4°F9.7°C 75% 4.6 mph SW7.4 kmh SW 8.1 mph13.0 kmh 29.97 in1014.9 mb - 0.00 in0.0 mm 0.00 in0.0 mm
04:50 AM 57.6°F14.2°C 49.0°F9.4°C 73% 5.8 mph SSW9.3 kmh SSW 6.9 mph11.1 kmh 29.97 in1014.9 mb - 0.00 in0.0 mm 0.00 in0.0 mm
04:40 AM 57.7°F14.3°C 48.4°F9.1°C 71% 5.8 mph SSW9.3 kmh SSW 11.5 mph18.5 kmh 29.97 in1014.9 mb - 0.00 in0.0 mm 0.00 in0.0 mm
04:30 AM 57.8°F14.3°C 48.1°F8.9°C 70% 4.6 mph SSW7.4 kmh SSW 6.9 mph11.1 kmh 29.97 in1014.9 mb - 0.00 in0.0 mm 0.00 in0.0 mm
04:20 AM 57.9°F14.4°C 48.2°F9.0°C 70% 5.8 mph SSW9.3 kmh SSW 11.5 mph18.5 kmh 29.97 in1014.9 mb - 0.00 in0.0 mm 0.00 in0.0 mm
04:10 AM 58.0°F14.4°C 47.9°F8.8°C 69% 5.8 mph SW9.3 kmh SW 9.2 mph14.8 kmh 29.97 in1014.9 mb - 0.00 in0.0 mm 0.00 in0.0 mm
04:00 AM 58.0°F14.4°C 47.9°F8.8°C 69% 8.1 mph SSW13.0 kmh SSW 11.5 mph18.5 kmh 29.97 in1014.9 mb - 0.00 in0.0 mm 0.00 in0.0 mm
03:50 AM 58.0°F14.4°C 48.3°F9.1°C 70% 6.9 mph SSW11.1 kmh SSW 11.5 mph18.5 kmh 29.98 in1015.2 mb - 0.00 in0.0 mm 0.00 in0.0 mm
03:40 AM 58.0°F14.4°C 48.6°F9.2°C 71% 6.9 mph SSW11.1 kmh SSW 11.5 mph18.5 kmh 29.97 in1014.9 mb - 0.00 in0.0 mm 0.00 in0.0 mm
03:30 AM 58.0°F14.4°C 49.0°F9.4°C 72% 4.6 mph S7.4 kmh S 10.4 mph16.7 kmh 29.97 in1014.9 mb - 0.00 in0.0 mm 0.00 in0.0 mm
03:20 AM 58.1°F14.5°C 49.1°F9.5°C 72% 5.8 mph S9.3 kmh S 8.1 mph13.0 kmh 29.98 in1015.2 mb - 0.00 in0.0 mm 0.00 in0.0 mm
03:10 AM 58.1°F14.5°C 49.1°F9.5°C 72% 6.9 mph SSW11.1 kmh SSW 11.5 mph18.5 kmh 29.98 in1015.2 mb - 0.00 in0.0 mm 0.00 in0.0 mm
03:00 AM 58.2°F14.6°C 49.2°F9.6°C 72% 8.1 mph SW13.0 kmh SW 6.9 mph11.1 kmh 29.98 in1015.2 mb - 0.00 in0.0 mm 0.00 in0.0 mm
02:50 AM 58.2°F14.6°C 49.2°F9.6°C 72% 8.1 mph S13.0 kmh S 11.5 mph18.5 kmh 29.98 in1015.2 mb - 0.00 in0.0 mm 0.00 in0.0 mm
02:40 AM 58.3°F14.6°C 49.3°F9.6°C 72% 6.9 mph SSW11.1 kmh SSW 10.4 mph16.7 kmh 29.99 in1015.6 mb - 0.00 in0.0 mm 0.00 in0.0 mm
02:30 AM 58.4°F14.7°C 49.0°F9.4°C 71% 9.2 mph SSW14.8 kmh SSW 10.4 mph16.7 kmh 29.99 in1015.6 mb - 0.00 in0.0 mm 0.00 in0.0 mm
02:20 AM 58.5°F14.7°C 49.2°F9.6°C 71% 10.4 mph SW16.7 kmh SW 11.5 mph18.5 kmh 29.99 in1015.6 mb - 0.00 in0.0 mm 0.00 in0.0 mm
02:10 AM 58.7°F14.8°C 49.3°F9.6°C 71% 8.1 mph S13.0 kmh S 11.5 mph18.5 kmh 29.99 in1015.6 mb - 0.00 in0.0 mm 0.00 in0.0 mm
02:00 AM 58.8°F14.9°C 49.0°F9.4°C 70% 8.1 mph SW13.0 kmh SW 12.7 mph20.4 kmh 29.99 in1015.6 mb - 0.00 in0.0 mm 0.00 in0.0 mm
01:50 AM 58.9°F14.9°C 49.5°F9.7°C 71% 9.2 mph S14.8 kmh S 12.7 mph20.4 kmh 30.00 in1015.9 mb - 0.00 in0.0 mm 0.00 in0.0 mm
01:40 AM 59.0°F15.0°C 49.2°F9.6°C 70% 3.5 mph S5.6 kmh S 5.8 mph9.3 kmh 30.00 in1015.9 mb - 0.00 in0.0 mm 0.00 in0.0 mm
01:30 AM 59.1°F15.1°C 49.3°F9.6°C 70% 5.8 mph S9.3 kmh S 8.1 mph13.0 kmh 30.00 in1015.9 mb - 0.00 in0.0 mm 0.00 in0.0 mm
01:20 AM 59.1°F15.1°C 49.3°F9.6°C 70% 5.8 mph SSW9.3 kmh SSW 12.7 mph20.4 kmh 30.01 in1016.3 mb - 0.00 in0.0 mm 0.00 in0.0 mm
01:10 AM 59.1°F15.1°C 49.3°F9.6°C 70% 4.6 mph S7.4 kmh S 6.9 mph11.1 kmh 30.01 in1016.3 mb - 0.00 in0.0 mm 0.00 in0.0 mm
01:00 AM 59.1°F15.1°C 49.3°F9.6°C 70% 5.8 mph SSW9.3 kmh SSW 9.2 mph14.8 kmh 30.02 in1016.6 mb - 0.00 in0.0 mm 0.00 in0.0 mm
12:50 AM 59.1°F15.1°C 49.3°F9.6°C 70% 8.1 mph SSW13.0 kmh SSW 12.7 mph20.4 kmh 30.02 in1016.6 mb - 0.00 in0.0 mm 0.00 in0.0 mm
12:40 AM 59.1°F15.1°C 49.3°F9.6°C 70% 5.8 mph SW9.3 kmh SW 10.4 mph16.7 kmh 30.02 in1016.6 mb - 0.00 in0.0 mm 0.00 in0.0 mm
12:30 AM 59.0°F15.0°C 49.2°F9.6°C 70% 6.9 mph S11.1 kmh S 8.1 mph13.0 kmh 30.03 in1016.9 mb - 0.00 in0.0 mm 0.00 in0.0 mm
12:20 AM 59.0°F15.0°C 49.2°F9.6°C 70% 3.5 mph S5.6 kmh S 3.5 mph5.6 kmh 30.03 in1016.9 mb - 0.00 in0.0 mm 0.00 in0.0 mm
12:10 AM 59.1°F15.1°C 49.3°F9.6°C 70% 4.6 mph SSW7.4 kmh SSW 5.8 mph9.3 kmh 30.03 in1016.9 mb - 0.00 in0.0 mm 0.00 in0.0 mm
12:00 AM 59.0°F15.0°C 49.6°F9.8°C 71% 6.9 mph SSW11.1 kmh SSW 12.7 mph20.4 kmh 30.03 in1016.9 mb - 0.00 in0.0 mm 0.00 in0.0 mm